sensor_id;sensor_type;location;lat;lon;timestamp;pressure;altitude;pressure_sealevel;temperature;humidity
65666;BME280;52365;47.464;18.976;2023-04-05T00:00:27;100060.94;;;3.93;41.98
65666;BME280;52365;47.464;18.976;2023-04-05T00:01:04;100058.03;;;3.81;41.72
65666;BME280;52365;47.464;18.976;2023-04-05T00:01:42;100065.47;;;3.96;41.66
65666;BME280;52365;47.464;18.976;2023-04-05T00:02:19;100064.63;;;4.03;40.72
65666;BME280;52365;47.464;18.976;2023-04-05T00:02:56;100064.06;;;3.54;41.18
65666;BME280;52365;47.464;18.976;2023-04-05T00:03:34;100060.13;;;3.66;41.48
65666;BME280;52365;47.464;18.976;2023-04-05T00:04:11;100057.16;;;3.60;41.30
65666;BME280;52365;47.464;18.976;2023-04-05T00:04:47;100057.16;;;3.60;41.62
65666;BME280;52365;47.464;18.976;2023-04-05T00:05:27;100062.53;;;3.87;41.88
65666;BME280;52365;47.464;18.976;2023-04-05T00:06:06;100063.47;;;3.73;42.04
65666;BME280;52365;47.464;18.976;2023-04-05T00:06:42;100056.38;;;3.60;41.93
65666;BME280;52365;47.464;18.976;2023-04-05T00:07:18;100057.69;;;3.44;42.56
65666;BME280;52365;47.464;18.976;2023-04-05T00:07:56;100053.25;;;3.34;42.54
65666;BME280;52365;47.464;18.976;2023-04-05T00:08:33;100052.38;;;3.44;42.38
65666;BME280;52365;47.464;18.976;2023-04-05T00:09:09;100062.16;;;3.54;41.78
65666;BME280;52365;47.464;18.976;2023-04-05T00:09:45;100050.66;;;3.23;42.10
65666;BME280;52365;47.464;18.976;2023-04-05T00:10:22;100056.66;;;3.35;42.11
65666;BME280;52365;47.464;18.976;2023-04-05T00:10:58;100060.09;;;3.32;42.54
65666;BME280;52365;47.464;18.976;2023-04-05T00:11:34;100057.28;;;3.46;42.20
65666;BME280;52365;47.464;18.976;2023-04-05T00:12:10;100058.00;;;3.50;42.26
65666;BME280;52365;47.464;18.976;2023-04-05T00:12:46;100061.56;;;3.40;42.66
65666;BME280;52365;47.464;18.976;2023-04-05T00:13:22;100050.75;;;3.16;42.40
65666;BME280;52365;47.464;18.976;2023-04-05T00:13:59;100050.09;;;3.43;42.27
65666;BME280;52365;47.464;18.976;2023-04-05T00:14:36;100060.38;;;3.78;41.51
65666;BME280;52365;47.464;18.976;2023-04-05T00:15:12;100056.06;;;3.54;42.28
65666;BME280;52365;47.464;18.976;2023-04-05T00:15:48;100051.25;;;3.42;41.82
65666;BME280;52365;47.464;18.976;2023-04-05T00:16:25;100052.41;;;3.41;41.85
65666;BME280;52365;47.464;18.976;2023-04-05T00:17:02;100046.44;;;3.30;42.11
65666;BME280;52365;47.464;18.976;2023-04-05T00:17:38;100048.72;;;3.27;42.38
65666;BME280;52365;47.464;18.976;2023-04-05T00:18:14;100049.94;;;3.19;42.66
65666;BME280;52365;47.464;18.976;2023-04-05T00:18:56;100048.69;;;3.31;42.46
65666;BME280;52365;47.464;18.976;2023-04-05T00:19:33;100052.53;;;3.30;43.03
65666;BME280;52365;47.464;18.976;2023-04-05T00:20:11;100051.25;;;3.42;42.52
65666;BME280;52365;47.464;18.976;2023-04-05T00:20:50;100046.00;;;3.35;42.42
65666;BME280;52365;47.464;18.976;2023-04-05T00:21:26;100051.63;;;3.44;42.42
65666;BME280;52365;47.464;18.976;2023-04-05T00:22:03;100047.56;;;3.66;42.40
65666;BME280;52365;47.464;18.976;2023-04-05T00:22:41;100046.09;;;3.62;42.36
65666;BME280;52365;47.464;18.976;2023-04-05T00:23:21;100043.69;;;3.37;42.53
65666;BME280;52365;47.464;18.976;2023-04-05T00:23:58;100047.97;;;3.27;43.01
65666;BME280;52365;47.464;18.976;2023-04-05T00:24:34;100045.13;;;3.45;43.03
65666;BME280;52365;47.464;18.976;2023-04-05T00:25:16;100040.28;;;3.36;42.53
65666;BME280;52365;47.464;18.976;2023-04-05T00:25:52;100037.88;;;3.45;42.81
65666;BME280;52365;47.464;18.976;2023-04-05T00:26:29;100043.19;;;3.49;42.03
65666;BME280;52365;47.464;18.976;2023-04-05T00:27:05;100044.41;;;3.41;41.94
65666;BME280;52365;47.464;18.976;2023-04-05T00:27:44;100043.41;;;3.27;41.86
65666;BME280;52365;47.464;18.976;2023-04-05T00:28:20;100034.47;;;3.07;42.49
65666;BME280;52365;47.464;18.976;2023-04-05T00:28:56;100037.94;;;3.04;42.38
65666;BME280;52365;47.464;18.976;2023-04-05T00:29:32;100041.22;;;3.19;42.51
65666;BME280;52365;47.464;18.976;2023-04-05T00:30:09;100039.06;;;3.41;42.27
65666;BME280;52365;47.464;18.976;2023-04-05T00:30:45;100042.44;;;3.48;42.49
65666;BME280;52365;47.464;18.976;2023-04-05T00:31:21;100042.84;;;3.47;42.58
65666;BME280;52365;47.464;18.976;2023-04-05T00:31:57;100040.53;;;3.79;41.96
65666;BME280;52365;47.464;18.976;2023-04-05T00:32:34;100043.56;;;3.82;41.40
65666;BME280;52365;47.464;18.976;2023-04-05T00:33:13;100044.50;;;3.98;41.17
65666;BME280;52365;47.464;18.976;2023-04-05T00:33:49;100049.00;;;4.05;41.02
65666;BME280;52365;47.464;18.976;2023-04-05T00:34:26;100040.53;;;3.79;40.92
65666;BME280;52365;47.464;18.976;2023-04-05T00:35:03;100043.87;;;3.57;41.50
65666;BME280;52365;47.464;18.976;2023-04-05T00:35:39;100041.16;;;3.26;41.80
65666;BME280;52365;47.464;18.976;2023-04-05T00:36:17;100040.06;;;3.54;41.97
65666;BME280;52365;47.464;18.976;2023-04-05T00:36:53;100040.87;;;3.82;41.42
65666;BME280;52365;47.464;18.976;2023-04-05T00:37:29;100051.47;;;3.89;41.49
65666;BME280;52365;47.464;18.976;2023-04-05T00:38:05;100046.34;;;4.01;41.61
65666;BME280;52365;47.464;18.976;2023-04-05T00:38:42;100045.62;;;3.67;41.29
65666;BME280;52365;47.464;18.976;2023-04-05T00:39:18;100045.22;;;3.68;41.52
65666;BME280;52365;47.464;18.976;2023-04-05T00:39:54;100048.34;;;3.63;41.74
65666;BME280;52365;47.464;18.976;2023-04-05T00:40:32;100045.16;;;3.41;42.26
65666;BME280;52365;47.464;18.976;2023-04-05T00:41:09;100048.78;;;3.58;41.95
65666;BME280;52365;47.464;18.976;2023-04-05T00:41:45;100040.50;;;3.83;41.55
65666;BME280;52365;47.464;18.976;2023-04-05T00:42:22;100042.31;;;3.90;40.76
65666;BME280;52365;47.464;18.976;2023-04-05T00:42:58;100041.56;;;3.55;41.72
65666;BME280;52365;47.464;18.976;2023-04-05T00:43:34;100037.56;;;3.40;42.05
65666;BME280;52365;47.464;18.976;2023-04-05T00:44:10;100042.47;;;3.45;42.33
65666;BME280;52365;47.464;18.976;2023-04-05T00:44:47;100044.72;;;3.81;41.38
65666;BME280;52365;47.464;18.976;2023-04-05T00:45:23;100043.13;;;3.87;41.16
65666;BME280;52365;47.464;18.976;2023-04-05T00:46:03;100037.41;;;4.15;40.70
65666;BME280;52365;47.464;18.976;2023-04-05T00:46:40;100048.56;;;4.07;40.44
65666;BME280;52365;47.464;18.976;2023-04-05T00:47:16;100050.31;;;3.90;41.00
65666;BME280;52365;47.464;18.976;2023-04-05T00:47:53;100040.81;;;3.54;41.77
65666;BME280;52365;47.464;18.976;2023-04-05T00:48:29;100054.19;;;3.51;41.89
65666;BME280;52365;47.464;18.976;2023-04-05T00:49:06;100044.78;;;3.43;42.54
65666;BME280;52365;47.464;18.976;2023-04-05T00:49:42;100048.69;;;3.31;43.18
65666;BME280;52365;47.464;18.976;2023-04-05T00:50:18;100043.34;;;3.35;43.28
65666;BME280;52365;47.464;18.976;2023-04-05T00:50:56;100041.03;;;3.37;42.77
65666;BME280;52365;47.464;18.976;2023-04-05T00:51:34;100045.25;;;3.34;42.24
65666;BME280;52365;47.464;18.976;2023-04-05T00:52:10;100037.28;;;3.31;42.87
65666;BME280;52365;47.464;18.976;2023-04-05T00:52:48;100044.56;;;3.26;43.35
65666;BME280;52365;47.464;18.976;2023-04-05T00:53:25;100046.34;;;3.37;43.25
65666;BME280;52365;47.464;18.976;2023-04-05T00:54:04;100044.50;;;3.34;43.71
65666;BME280;52365;47.464;18.976;2023-04-05T00:54:41;100045.03;;;3.18;43.79
65666;BME280;52365;47.464;18.976;2023-04-05T00:55:18;100042.34;;;3.21;43.86
65666;BME280;52365;47.464;18.976;2023-04-05T00:55:54;100044.28;;;3.17;43.04
65666;BME280;52365;47.464;18.976;2023-04-05T00:56:31;100040.59;;;3.04;43.70
65666;BME280;52365;47.464;18.976;2023-04-05T00:57:07;100049.34;;;3.05;43.90
65666;BME280;52365;47.464;18.976;2023-04-05T00:57:44;100036.75;;;3.09;43.99
65666;BME280;52365;47.464;18.976;2023-04-05T00:58:21;100037.47;;;3.13;43.66
65666;BME280;52365;47.464;18.976;2023-04-05T00:58:58;100041.16;;;3.22;43.50
65666;BME280;52365;47.464;18.976;2023-04-05T00:59:34;100040.16;;;3.09;44.20
65666;BME280;52365;47.464;18.976;2023-04-05T01:00:10;100040.44;;;3.18;44.19
65666;BME280;52365;47.464;18.976;2023-04-05T01:01:15;100036.75;;;3.09;44.38
65666;BME280;52365;47.464;18.976;2023-04-05T01:02:51;100035.97;;;3.12;44.37
65666;BME280;52365;47.464;18.976;2023-04-05T01:03:09;100040.84;;;3.17;43.90
65666;BME280;52365;47.464;18.976;2023-04-05T01:03:54;100040.50;;;2.70;44.67
65666;BME280;52365;47.464;18.976;2023-04-05T01:04:34;100036.97;;;2.84;44.47
65666;BME280;52365;47.464;18.976;2023-04-05T01:05:24;100039.91;;;2.96;43.97
65666;BME280;52365;47.464;18.976;2023-04-05T01:06:21;100031.59;;;2.91;44.42
65666;BME280;52365;47.464;18.976;2023-04-05T01:07:18;100032.97;;;3.02;44.27
65666;BME280;52365;47.464;18.976;2023-04-05T01:08:07;100034.59;;;2.93;44.47
65666;BME280;52365;47.464;18.976;2023-04-05T01:09:59;100034.72;;;2.78;44.26
65666;BME280;52365;47.464;18.976;2023-04-05T01:10:38;100036.81;;;2.98;43.75
65666;BME280;52365;47.464;18.976;2023-04-05T01:11:17;100028.44;;;3.03;43.77
65666;BME280;52365;47.464;18.976;2023-04-05T01:11:56;100024.63;;;3.04;43.89
65666;BME280;52365;47.464;18.976;2023-04-05T01:12:34;100027.59;;;3.10;43.91
65666;BME280;52365;47.464;18.976;2023-04-05T01:13:12;100024.81;;;3.20;43.56
65666;BME280;52365;47.464;18.976;2023-04-05T01:13:57;100032.50;;;3.15;43.87
65666;BME280;52365;47.464;18.976;2023-04-05T01:14:52;100033.19;;;3.22;43.67
65666;BME280;52365;47.464;18.976;2023-04-05T01:15:29;100031.31;;;3.19;43.34
65666;BME280;52365;47.464;18.976;2023-04-05T01:16:05;100034.78;;;3.16;43.51
65666;BME280;52365;47.464;18.976;2023-04-05T01:16:41;100035.09;;;3.22;43.45
65666;BME280;52365;47.464;18.976;2023-04-05T01:17:19;100024.94;;;3.10;43.19
65666;BME280;52365;47.464;18.976;2023-04-05T01:17:58;100036.09;;;2.94;43.06
65666;BME280;52365;47.464;18.976;2023-04-05T01:18:37;100032.81;;;3.20;43.14
65666;BME280;52365;47.464;18.976;2023-04-05T01:19:13;100036.16;;;3.28;43.04
65666;BME280;52365;47.464;18.976;2023-04-05T01:19:52;100032.91;;;3.13;43.06
65666;BME280;52365;47.464;18.976;2023-04-05T01:20:33;100032.94;;;3.10;43.12
65666;BME280;52365;47.464;18.976;2023-04-05T01:23:42;100034.91;;;3.02;42.80
65666;BME280;52365;47.464;18.976;2023-04-05T01:24:48;100026.06;;;3.12;43.21
65666;BME280;52365;47.464;18.976;2023-04-05T01:26:55;100027.53;;;3.17;43.25
65666;BME280;52365;47.464;18.976;2023-04-05T01:27:55;100032.19;;;3.09;43.31
65666;BME280;52365;47.464;18.976;2023-04-05T01:30:40;100029.66;;;3.33;42.27
65666;BME280;52365;47.464;18.976;2023-04-05T01:31:24;100034.13;;;3.43;42.29
65666;BME280;52365;47.464;18.976;2023-04-05T01:32:12;100027.25;;;3.08;42.59
65666;BME280;52365;47.464;18.976;2023-04-05T01:33:57;100025.84;;;3.34;42.10
65666;BME280;52365;47.464;18.976;2023-04-05T01:34:51;100029.00;;;3.21;42.75
65666;BME280;52365;47.464;18.976;2023-04-05T01:35:38;100033.53;;;2.87;42.94
65666;BME280;52365;47.464;18.976;2023-04-05T01:36:23;100026.41;;;2.73;43.09
65666;BME280;52365;47.464;18.976;2023-04-05T01:37:05;100033.19;;;3.22;42.45
65666;BME280;52365;47.464;18.976;2023-04-05T01:37:44;100033.50;;;3.28;41.98
65666;BME280;52365;47.464;18.976;2023-04-05T01:38:24;100030.03;;;3.35;42.09
65666;BME280;52365;47.464;18.976;2023-04-05T01:39:03;100029.19;;;3.03;42.37
65666;BME280;52365;47.464;18.976;2023-04-05T01:39:40;100026.84;;;3.09;42.92
65666;BME280;52365;47.464;18.976;2023-04-05T01:40:16;100032.59;;;3.04;43.04
65666;BME280;52365;47.464;18.976;2023-04-05T01:40:53;100026.53;;;3.03;43.64
65666;BME280;52365;47.464;18.976;2023-04-05T01:41:29;100023.31;;;2.82;43.41
65666;BME280;52365;47.464;18.976;2023-04-05T01:42:06;100027.00;;;2.95;43.20
65666;BME280;52365;47.464;18.976;2023-04-05T01:42:43;100024.03;;;2.86;43.25
65666;BME280;52365;47.464;18.976;2023-04-05T01:43:21;100029.59;;;2.98;42.63
65666;BME280;52365;47.464;18.976;2023-04-05T01:43:57;100026.09;;;3.09;42.64
65666;BME280;52365;47.464;18.976;2023-04-05T01:44:33;100032.12;;;3.50;42.03
65666;BME280;52365;47.464;18.976;2023-04-05T01:45:09;100026.72;;;3.58;41.71
65666;BME280;52365;47.464;18.976;2023-04-05T01:45:46;100017.09;;;3.33;42.82
65666;BME280;52365;47.464;18.976;2023-04-05T01:46:22;100025.97;;;3.19;43.41
65666;BME280;52365;47.464;18.976;2023-04-05T01:46:58;100024.03;;;3.23;43.20
65666;BME280;52365;47.464;18.976;2023-04-05T01:47:34;100022.59;;;3.15;42.79
65666;BME280;52365;47.464;18.976;2023-04-05T01:48:11;100020.22;;;3.24;42.95
65666;BME280;52365;47.464;18.976;2023-04-05T01:48:47;100022.22;;;3.17;43.21
65666;BME280;52365;47.464;18.976;2023-04-05T01:49:24;100023.31;;;3.19;43.21
65666;BME280;52365;47.464;18.976;2023-04-05T01:50:00;100023.91;;;3.00;42.97
65666;BME280;52365;47.464;18.976;2023-04-05T01:50:36;100022.31;;;3.06;43.30
65666;BME280;52365;47.464;18.976;2023-04-05T01:51:12;100016.94;;;3.10;43.38
65666;BME280;52365;47.464;18.976;2023-04-05T01:51:48;100018.72;;;3.23;43.03
65666;BME280;52365;47.464;18.976;2023-04-05T01:52:24;100016.13;;;3.16;43.66
65666;BME280;52365;47.464;18.976;2023-04-05T01:53:00;100012.41;;;3.07;43.73
65666;BME280;52365;47.464;18.976;2023-04-05T01:53:36;100018.84;;;3.09;43.19
65666;BME280;52365;47.464;18.976;2023-04-05T01:54:12;100016.94;;;3.10;43.24
65666;BME280;52365;47.464;18.976;2023-04-05T01:54:48;100020.06;;;3.01;43.51
65666;BME280;52365;47.464;18.976;2023-04-05T01:55:25;100011.78;;;2.92;43.42
65666;BME280;52365;47.464;18.976;2023-04-05T01:56:01;100016.59;;;3.08;43.38
65666;BME280;52365;47.464;18.976;2023-04-05T01:56:37;100020.50;;;2.96;43.83
65666;BME280;52365;47.464;18.976;2023-04-05T01:57:13;100010.88;;;3.09;43.45
65666;BME280;52365;47.464;18.976;2023-04-05T01:57:50;100019.72;;;2.99;43.66
65666;BME280;52365;47.464;18.976;2023-04-05T01:58:27;100025.59;;;2.80;44.08
65666;BME280;52365;47.464;18.976;2023-04-05T01:59:03;100016.34;;;2.95;43.86
65666;BME280;52365;47.464;18.976;2023-04-05T01:59:39;100018.53;;;3.03;43.67
65666;BME280;52365;47.464;18.976;2023-04-05T02:00:15;100014.47;;;2.92;43.97
65666;BME280;52365;47.464;18.976;2023-04-05T02:00:55;100021.00;;;2.84;44.15
65666;BME280;52365;47.464;18.976;2023-04-05T02:01:31;100022.41;;;2.95;43.62
65666;BME280;52365;47.464;18.976;2023-04-05T02:02:08;100025.34;;;3.08;43.63
65666;BME280;52365;47.464;18.976;2023-04-05T02:02:44;100020.31;;;3.17;43.13
65666;BME280;52365;47.464;18.976;2023-04-05T02:03:21;100015.91;;;3.00;43.66
65666;BME280;52365;47.464;18.976;2023-04-05T02:03:57;100014.41;;;2.99;43.86
65666;BME280;52365;47.464;18.976;2023-04-05T02:04:33;100018.91;;;3.02;43.65
65666;BME280;52365;47.464;18.976;2023-04-05T02:05:09;100014.72;;;3.05;43.89
65666;BME280;52365;47.464;18.976;2023-04-05T02:05:45;100011.41;;;2.93;43.70
65666;BME280;52365;47.464;18.976;2023-04-05T02:06:21;100016.44;;;2.81;44.37
65666;BME280;52365;47.464;18.976;2023-04-05T02:06:57;100015.47;;;3.05;44.14
65666;BME280;52365;47.464;18.976;2023-04-05T02:07:33;100019.00;;;2.95;43.98
65666;BME280;52365;47.464;18.976;2023-04-05T02:08:10;100015.22;;;2.92;43.62
65666;BME280;52365;47.464;18.976;2023-04-05T02:08:46;100015.78;;;2.69;44.57
65666;BME280;52365;47.464;18.976;2023-04-05T02:09:22;100011.75;;;2.99;44.39
65666;BME280;52365;47.464;18.976;2023-04-05T02:09:58;100020.44;;;3.03;43.92
65666;BME280;52365;47.464;18.976;2023-04-05T02:10:34;100015.75;;;3.14;43.69
65666;BME280;52365;47.464;18.976;2023-04-05T02:11:10;100012.88;;;3.36;43.34
65666;BME280;52365;47.464;18.976;2023-04-05T02:11:46;100009.97;;;3.23;43.09
65666;BME280;52365;47.464;18.976;2023-04-05T02:12:22;100011.94;;;3.15;43.14
65666;BME280;52365;47.464;18.976;2023-04-05T02:12:58;100016.13;;;3.16;43.72
65666;BME280;52365;47.464;18.976;2023-04-05T02:13:34;100016.84;;;3.20;43.80
65666;BME280;52365;47.464;18.976;2023-04-05T02:14:10;100011.00;;;2.95;44.09
65666;BME280;52365;47.464;18.976;2023-04-05T02:14:47;100016.44;;;2.81;44.14
65666;BME280;52365;47.464;18.976;2023-04-05T02:15:23;100012.69;;;2.78;44.26
65666;BME280;52365;47.464;18.976;2023-04-05T02:15:59;100013.47;;;2.75;44.41
65666;BME280;52365;47.464;18.976;2023-04-05T02:16:35;100019.34;;;2.56;44.98
65666;BME280;52365;47.464;18.976;2023-04-05T02:17:11;100021.91;;;2.66;44.64
65666;BME280;52365;47.464;18.976;2023-04-05T02:17:47;100018.44;;;2.73;44.55
65666;BME280;52365;47.464;18.976;2023-04-05T02:18:23;100012.38;;;3.10;43.64
65666;BME280;52365;47.464;18.976;2023-04-05T02:19:04;100018.12;;;3.05;43.55
65666;BME280;52365;47.464;18.976;2023-04-05T02:19:41;100019.16;;;3.18;43.29
65666;BME280;52365;47.464;18.976;2023-04-05T02:20:21;100014.03;;;3.35;42.89
65666;BME280;52365;47.464;18.976;2023-04-05T02:21:07;100010.94;;;3.02;43.36
65666;BME280;52365;47.464;18.976;2023-04-05T02:21:45;100012.88;;;2.98;43.70
65666;BME280;52365;47.464;18.976;2023-04-05T02:22:22;100010.50;;;3.07;43.70
65666;BME280;52365;47.464;18.976;2023-04-05T02:22:58;100017.44;;;2.97;43.68
65666;BME280;52365;47.464;18.976;2023-04-05T02:23:36;100013.00;;;2.84;43.58
65666;BME280;52365;47.464;18.976;2023-04-05T02:24:12;100018.12;;;3.05;43.37
65666;BME280;52365;47.464;18.976;2023-04-05T02:24:48;100006.16;;;3.24;42.97
65666;BME280;52365;47.464;18.976;2023-04-05T02:25:24;100011.94;;;3.15;42.88
65666;BME280;52365;47.464;18.976;2023-04-05T02:26:00;100014.69;;;3.08;43.20
65666;BME280;52365;47.464;18.976;2023-04-05T02:26:36;100011.22;;;3.11;43.77
65666;BME280;52365;47.464;18.976;2023-04-05T02:27:12;100016.34;;;2.95;44.14
65666;BME280;52365;47.464;18.976;2023-04-05T02:27:48;100010.16;;;3.05;43.97
65666;BME280;52365;47.464;18.976;2023-04-05T02:28:24;100008.28;;;3.02;43.52
65666;BME280;52365;47.464;18.976;2023-04-05T02:29:01;100020.09;;;2.97;43.98
65666;BME280;52365;47.464;18.976;2023-04-05T02:29:37;100007.84;;;2.62;44.71
65666;BME280;52365;47.464;18.976;2023-04-05T02:30:13;100011.56;;;2.75;44.95
65666;BME280;52365;47.464;18.976;2023-04-05T02:30:49;100008.84;;;2.83;44.27
65666;BME280;52365;47.464;18.976;2023-04-05T02:31:25;100013.59;;;3.02;43.73
65666;BME280;52365;47.464;18.976;2023-04-05T02:32:02;100010.22;;;2.98;44.27
65666;BME280;52365;47.464;18.976;2023-04-05T02:32:39;100013.56;;;2.64;44.79
65666;BME280;52365;47.464;18.976;2023-04-05T02:33:17;100013.78;;;2.81;44.64
65666;BME280;52365;47.464;18.976;2023-04-05T02:33:53;100013.63;;;2.53;45.34
65666;BME280;52365;47.464;18.976;2023-04-05T02:34:30;100009.03;;;2.58;45.15
65666;BME280;52365;47.464;18.976;2023-04-05T02:35:07;100012.44;;;2.62;45.06
65666;BME280;52365;47.464;18.976;2023-04-05T02:35:43;100011.62;;;2.68;44.31
65666;BME280;52365;47.464;18.976;2023-04-05T02:36:19;100004.44;;;2.62;44.80
65666;BME280;52365;47.464;18.976;2023-04-05T02:36:56;100013.19;;;2.62;44.96
65666;BME280;52365;47.464;18.976;2023-04-05T02:37:34;100012.72;;;2.74;44.76
65666;BME280;52365;47.464;18.976;2023-04-05T02:38:10;100003.50;;;2.83;44.53
65666;BME280;52365;47.464;18.976;2023-04-05T02:38:46;100011.31;;;2.59;44.38
65666;BME280;52365;47.464;18.976;2023-04-05T02:39:22;100012.66;;;2.82;44.31
65666;BME280;52365;47.464;18.976;2023-04-05T02:39:58;100009.13;;;2.92;44.20
65666;BME280;52365;47.464;18.976;2023-04-05T02:40:34;100012.75;;;2.67;44.21
65666;BME280;52365;47.464;18.976;2023-04-05T02:41:10;100007.38;;;2.74;44.60
65666;BME280;52365;47.464;18.976;2023-04-05T02:41:46;100010.34;;;2.84;44.23
65666;BME280;52365;47.464;18.976;2023-04-05T02:42:22;100007.38;;;2.74;44.18
65666;BME280;52365;47.464;18.976;2023-04-05T02:42:58;100009.16;;;2.43;45.41
65666;BME280;52365;47.464;18.976;2023-04-05T02:43:35;100003.72;;;2.58;45.16
65666;BME280;52365;47.464;18.976;2023-04-05T02:44:12;100006.34;;;2.61;45.13
65666;BME280;52365;47.464;18.976;2023-04-05T02:44:48;100013.59;;;2.57;45.44
65666;BME280;52365;47.464;18.976;2023-04-05T02:45:24;100009.06;;;2.54;45.46
65666;BME280;52365;47.464;18.976;2023-04-05T02:46:02;100009.75;;;2.65;45.21
65666;BME280;52365;47.464;18.976;2023-04-05T02:46:38;100014.44;;;2.47;45.43
65666;BME280;52365;47.464;18.976;2023-04-05T02:47:15;100003.09;;;2.43;45.64
65666;BME280;52365;47.464;18.976;2023-04-05T02:47:56;100009.94;;;2.37;45.71
65666;BME280;52365;47.464;18.976;2023-04-05T02:48:32;100006.06;;;2.48;45.54
65666;BME280;52365;47.464;18.976;2023-04-05T02:49:08;100011.94;;;2.77;45.12
65666;BME280;52365;47.464;18.976;2023-04-05T02:49:44;100016.94;;;2.68;44.87
65666;BME280;52365;47.464;18.976;2023-04-05T02:50:20;100010.97;;;2.53;45.17
65666;BME280;52365;47.464;18.976;2023-04-05T02:50:58;100008.44;;;2.36;45.44
65666;BME280;52365;47.464;18.976;2023-04-05T02:51:34;99999.72;;;2.32;45.97
65666;BME280;52365;47.464;18.976;2023-04-05T02:52:10;100004.78;;;2.15;46.53
65666;BME280;52365;47.464;18.976;2023-04-05T02:52:46;100006.97;;;2.27;46.61
65666;BME280;52365;47.464;18.976;2023-04-05T02:53:25;100009.94;;;2.37;45.99
65666;BME280;52365;47.464;18.976;2023-04-05T02:54:01;100011.78;;;2.47;45.59
65666;BME280;52365;47.464;18.976;2023-04-05T02:54:38;99997.00;;;2.42;45.02
65666;BME280;52365;47.464;18.976;2023-04-05T02:55:14;100005.28;;;2.51;44.92
65666;BME280;52365;47.464;18.976;2023-04-05T02:55:54;100002.69;;;2.44;45.63
65666;BME280;52365;47.464;18.976;2023-04-05T02:56:31;100001.00;;;2.68;45.35
65666;BME280;52365;47.464;18.976;2023-04-05T02:57:07;99998.94;;;2.83;44.62
65666;BME280;52365;47.464;18.976;2023-04-05T02:57:46;100009.78;;;2.62;45.02
65666;BME280;52365;47.464;18.976;2023-04-05T02:58:23;100007.97;;;2.48;45.51
65666;BME280;52365;47.464;18.976;2023-04-05T02:58:59;100002.25;;;2.49;45.49
65666;BME280;52365;47.464;18.976;2023-04-05T02:59:36;100008.41;;;2.39;45.73
65666;BME280;52365;47.464;18.976;2023-04-05T03:00:13;100007.66;;;2.39;45.65
65666;BME280;52365;47.464;18.976;2023-04-05T03:00:50;100012.66;;;2.33;45.57
65666;BME280;52365;47.464;18.976;2023-04-05T03:01:27;100013.41;;;2.34;45.75
65666;BME280;52365;47.464;18.976;2023-04-05T03:02:08;100001.66;;;2.27;45.94
65666;BME280;52365;47.464;18.976;2023-04-05T03:02:44;100011.91;;;2.29;45.82
65666;BME280;52365;47.464;18.976;2023-04-05T03:03:21;100005.66;;;2.53;45.61
65666;BME280;52365;47.464;18.976;2023-04-05T03:03:57;100005.94;;;2.66;45.16
65666;BME280;52365;47.464;18.976;2023-04-05T03:04:33;99998.44;;;2.99;44.24
65666;BME280;52365;47.464;18.976;2023-04-05T03:05:09;100003.50;;;2.83;43.54
65666;BME280;52365;47.464;18.976;2023-04-05T03:05:46;100002.50;;;2.69;44.47
65666;BME280;52365;47.464;18.976;2023-04-05T03:06:23;100001.38;;;2.63;44.95
65666;BME280;52365;47.464;18.976;2023-04-05T03:07:00;100008.25;;;2.64;45.10
65666;BME280;52365;47.464;18.976;2023-04-05T03:07:37;100006.69;;;2.63;45.16
65666;BME280;52365;47.464;18.976;2023-04-05T03:08:16;100005.47;;;2.75;44.94
65666;BME280;52365;47.464;18.976;2023-04-05T03:08:58;100011.94;;;2.77;44.78
65666;BME280;52365;47.464;18.976;2023-04-05T03:09:36;100009.00;;;2.61;44.35
65666;BME280;52365;47.464;18.976;2023-04-05T03:10:13;100009.94;;;2.40;45.06
65666;BME280;52365;47.464;18.976;2023-04-05T03:10:50;100005.75;;;2.39;45.71
65666;BME280;52365;47.464;18.976;2023-04-05T03:11:26;100002.38;;;2.32;45.75
65666;BME280;52365;47.464;18.976;2023-04-05T03:12:03;100003.56;;;2.23;45.61
65666;BME280;52365;47.464;18.976;2023-04-05T03:12:39;100007.63;;;2.46;45.58
65666;BME280;52365;47.464;18.976;2023-04-05T03:13:15;100012.59;;;2.37;44.79
65666;BME280;52365;47.464;18.976;2023-04-05T03:13:51;100005.78;;;2.36;45.18
65666;BME280;52365;47.464;18.976;2023-04-05T03:14:27;100009.28;;;2.25;45.06
65666;BME280;52365;47.464;18.976;2023-04-05T03:15:03;100007.47;;;2.12;45.55
65666;BME280;52365;47.464;18.976;2023-04-05T03:15:40;100008.56;;;2.18;45.92
65666;BME280;52365;47.464;18.976;2023-04-05T03:16:16;100001.84;;;1.99;46.07
65666;BME280;52365;47.464;18.976;2023-04-05T03:16:55;100009.06;;;1.95;46.42
65666;BME280;52365;47.464;18.976;2023-04-05T03:17:31;100016.72;;;1.86;47.10
65666;BME280;52365;47.464;18.976;2023-04-05T03:18:07;100012.00;;;2.15;46.35
65666;BME280;52365;47.464;18.976;2023-04-05T03:18:44;100012.72;;;2.22;46.02
65666;BME280;52365;47.464;18.976;2023-04-05T03:19:20;100013.81;;;2.29;45.97
65666;BME280;52365;47.464;18.976;2023-04-05T03:19:57;100009.63;;;2.31;46.13
65666;BME280;52365;47.464;18.976;2023-04-05T03:20:36;100013.00;;;2.39;46.20
65666;BME280;52365;47.464;18.976;2023-04-05T03:21:16;100004.06;;;2.11;47.19
65666;BME280;52365;47.464;18.976;2023-04-05T03:21:52;100006.50;;;2.40;46.77
65666;BME280;52365;47.464;18.976;2023-04-05T03:22:28;100014.66;;;2.15;47.52
65666;BME280;52365;47.464;18.976;2023-04-05T03:23:08;100014.63;;;2.22;47.42
65666;BME280;52365;47.464;18.976;2023-04-05T03:23:44;100011.53;;;2.31;47.26
65666;BME280;52365;47.464;18.976;2023-04-05T03:24:21;100008.88;;;2.27;47.28
65666;BME280;52365;47.464;18.976;2023-04-05T03:24:57;100006.22;;;2.75;46.86
65666;BME280;52365;47.464;18.976;2023-04-05T03:25:34;100010.47;;;3.11;46.18
65666;BME280;52365;47.464;18.976;2023-04-05T03:26:11;100021.38;;;3.23;45.69